Time;durP1;ratioP1;P1;durP2;ratioP2;P2;SDS_P1;SDS_P2;PMS_P1;PMS_P2;Temp;Humidity;BMP_temperature;BMP_pressure;BME280_temperature;BME280_humidity;BME280_pressure;Samples;Min_cycle;Max_cycle;Signal;HPM_P1;HPM_P2
2023/05/22 04:13:01;;;;;;;3.90;3.70;;;13.60;99.90;;;;;;5783175;23;20529;-70
2023/05/22 04:15:32;;;;;;;4.43;4.22;;;13.60;99.90;;;;;;4919952;29;20225;-71
2023/05/22 04:18:00;;;;;;;4.53;4.22;;;13.70;99.90;;;;;;4920034;29;20194;-73
2023/05/22 04:20:26;;;;;;;3.88;3.67;;;13.70;99.90;;;;;;4919925;29;20238;-74
2023/05/22 04:22:54;;;;;;;4.25;4.05;;;13.80;99.90;;;;;;4919780;29;20360;-73
2023/05/22 04:25:20;;;;;;;4.50;4.28;;;13.90;99.90;;;;;;4919986;29;20244;-73
2023/05/22 04:27:47;;;;;;;4.35;4.15;;;14.00;99.90;;;;;;4919848;29;20232;-72
2023/05/22 04:30:15;;;;;;;4.38;4.13;;;14.20;99.90;;;;;;4920040;29;20318;-72
2023/05/22 04:32:43;;;;;;;4.68;4.38;;;14.50;99.90;;;;;;4918832;29;20236;-72
2023/05/22 04:35:11;;;;;;;4.10;3.85;;;14.60;99.90;;;;;;4919787;29;20205;-75
2023/05/22 04:37:39;;;;;;;4.97;4.68;;;14.80;99.90;;;;;;4919844;29;20229;-69
2023/05/22 04:40:08;;;;;;;5.00;4.63;;;14.80;99.90;;;;;;4919635;29;20201;-71
2023/05/22 04:42:36;;;;;;;5.82;5.35;;;14.90;99.90;;;;;;4919314;29;20720;-70
2023/05/22 04:45:03;;;;;;;5.03;4.72;;;15.70;99.90;;;;;;4919762;29;20212;-70
2023/05/22 04:47:30;;;;;;;6.05;5.60;;;15.10;99.90;;;;;;4919407;29;20220;-70
2023/05/22 04:49:58;;;;;;;5.00;4.63;;;15.10;99.90;;;;;;4941756;23;20583;-70
2023/05/22 04:52:25;;;;;;;5.30;5.00;;;15.20;99.90;;;;;;4919364;29;20221;-70
2023/05/22 04:54:53;;;;;;;5.35;4.95;;;15.40;99.90;;;;;;4921498;29;20265;-71
2023/05/22 04:57:20;;;;;;;4.82;4.53;;;15.50;99.90;;;;;;4919581;29;20256;-71
2023/05/22 04:59:47;;;;;;;4.78;4.50;;;15.70;99.90;;;;;;4918972;29;20320;-71
2023/05/22 05:02:14;;;;;;;5.00;4.57;;;15.90;99.90;;;;;;4918980;29;20201;-71
2023/05/22 05:04:42;;;;;;;4.93;4.63;;;16.20;99.90;;;;;;4918677;29;20669;-71
2023/05/22 05:07:10;;;;;;;5.00;4.70;;;17.00;99.90;;;;;;4918910;29;20233;-71
2023/05/22 05:09:36;;;;;;;6.90;6.20;;;18.10;99.90;;;;;;4918513;29;20731;-71
2023/05/22 05:12:04;;;;;;;6.68;6.15;;;19.20;99.90;;;;;;4918555;29;20712;-72
2023/05/22 05:14:30;;;;;;;6.90;6.30;;;20.50;99.90;;;;;;4918472;29;20211;-71
2023/05/22 05:16:57;;;;;;;6.60;5.95;;;21.50;99.90;;;;;;4918405;29;20597;-72
2023/05/22 05:19:24;;;;;;;7.38;6.57;;;22.20;99.90;;;;;;4918586;29;20227;-72
2023/05/22 13:13:11;;;;;;;;;;;24.70;92.30;;;;;;5550133;23;19923;-71
2023/05/22 13:15:37;;;;;;;;;;;24.50;90.30;;;;;;4919216;29;19923;-71
2023/05/22 13:18:04;;;;;;;;;;;24.50;91.50;;;;;;4919069;29;20346;-69
2023/05/22 13:20:30;;;;;;;;;;;24.40;88.00;;;;;;4919600;29;19922;-69
2023/05/22 13:22:57;;;;;;;;;;;24.30;83.70;;;;;;4919280;29;19923;-70
2023/05/22 13:25:23;;;;;;;;;;;24.20;80.40;;;;;;4919025;29;20371;-70
2023/05/22 13:27:50;;;;;;;;;;;24.20;78.30;;;;;;4919705;29;19930;-70
2023/05/22 13:30:19;;;;;;;;;;;24.10;74.30;;;;;;4919237;29;20264;-72
2023/05/22 13:32:45;;;;;;;;;;;24.00;77.10;;;;;;4918923;29;19930;-70
2023/05/22 13:35:12;;;;;;;;;;;24.00;78.00;;;;;;4918733;29;19923;-70
2023/05/22 13:37:39;;;;;;;;;;;24.10;78.20;;;;;;4919013;29;20402;-70
2023/05/22 13:40:06;;;;;;;;;;;24.30;72.40;;;;;;4919014;29;20025;-70
2023/05/22 13:42:33;;;;;;;;;;;24.40;71.20;;;;;;4919819;29;19923;-70
2023/05/22 13:44:59;;;;;;;;;;;24.40;72.50;;;;;;4919539;29;19934;-70
2023/05/22 13:47:27;;;;;;;;;;;24.50;77.80;;;;;;4920184;29;19930;-70
2023/05/22 13:49:54;;;;;;;;;;;24.60;74.20;;;;;;4923884;29;19923;-69
2023/05/22 13:52:21;;;;;;;;;;;24.60;72.70;;;;;;4928412;29;19923;-70
2023/05/22 13:54:49;;;;;;;;;;;24.60;72.80;;;;;;4926222;29;19930;-70
2023/05/22 13:57:15;;;;;;;;;;;24.70;74.80;;;;;;4924515;29;19974;-70
2023/05/22 13:59:43;;;;;;;;;;;24.60;74.00;;;;;;4923577;29;19923;-70
2023/05/22 14:02:09;;;;;;;;;;;24.50;77.80;;;;;;4924332;29;19951;-69
2023/05/22 14:04:38;;;;;;;;;;;24.50;74.10;;;;;;4922163;29;20006;-70
2023/05/22 14:07:05;;;;;;;;;;;24.30;75.00;;;;;;4922348;29;19930;-70
2023/05/22 14:09:31;;;;;;;;;;;24.10;73.20;;;;;;4922879;29;20368;-70
2023/05/22 14:11:58;;;;;;;;;;;24.10;73.50;;;;;;4922580;29;19929;-71
2023/05/22 14:14:25;;;;;;;;;;;24.00;74.70;;;;;;4922306;29;19922;-69
2023/05/22 14:16:52;;;;;;;;;;;23.80;73.40;;;;;;4922426;29;20264;-70
2023/05/22 14:19:19;;;;;;;;;;;23.70;74.80;;;;;;4922856;29;19947;-70
2023/05/22 14:21:48;;;;;;;;;;;23.70;75.90;;;;;;4921228;29;19927;-72
2023/05/22 14:24:15;;;;;;;;;;;23.70;77.30;;;;;;4922265;29;20323;-71
2023/05/22 14:26:42;;;;;;;;;;;23.60;80.80;;;;;;4922165;29;19927;-71
2023/05/22 14:29:09;;;;;;;;;;;23.50;79.60;;;;;;4921341;29;19927;-72
2023/05/22 14:31:44;;;;;;;;;;;23.40;82.60;;;;;;4918091;29;19923;-72
2023/05/22 14:34:10;;;;;;;;;;;23.30;82.00;;;;;;4917824;29;20030;-72
2023/05/22 14:36:37;;;;;;;;;;;23.30;86.00;;;;;;4917902;29;19975;-73
2023/05/22 14:39:05;;;;;;;;;;;23.10;87.00;;;;;;4917909;29;20335;-73
2023/05/22 14:41:31;;;;;;;;;;;22.90;86.80;;;;;;4917754;29;19930;-73
2023/05/22 14:43:58;;;;;;;;;;;22.90;91.20;;;;;;4917523;29;19929;-72
2023/05/22 14:46:24;;;;;;;;;;;22.90;88.30;;;;;;4917943;29;19923;-73
2023/05/22 14:48:51;;;;;;;;;;;23.00;85.90;;;;;;4917600;29;19931;-73
2023/05/22 14:51:17;;;;;;;;;;;23.00;82.70;;;;;;4917659;29;19965;-73
2023/05/22 14:53:44;;;;;;;;;;;23.00;80.70;;;;;;4917162;29;20317;-73
2023/05/22 14:56:12;;;;;;;;;;;23.00;80.40;;;;;;4917539;29;19927;-73
2023/05/22 14:58:39;;;;;;;;;;;23.00;84.10;;;;;;4917754;29;19923;-73
2023/05/22 15:01:05;;;;;;;;;;;23.10;84.70;;;;;;4917569;29;19966;-72
2023/05/22 15:03:32;;;;;;;;;;;22.90;80.70;;;;;;4917098;29;20446;-72
2023/05/22 15:05:58;;;;;;;;;;;22.90;78.10;;;;;;4917363;29;19930;-72
2023/05/22 15:08:25;;;;;;;;;;;22.70;78.00;;;;;;4917348;29;19978;-72
2023/05/22 15:10:51;;;;;;;;;;;22.50;81.50;;;;;;4917462;29;19949;-72
2023/05/22 15:13:20;;;;;;;;;;;22.50;84.70;;;;;;4917609;29;19927;-72
2023/05/22 15:15:46;;;;;;;;;;;22.40;85.50;;;;;;4917714;29;19946;-72
2023/05/22 15:18:13;;;;;;;;;;;22.40;86.50;;;;;;4921655;29;19945;-72
2023/05/22 15:20:39;;;;;;;;;;;22.40;88.60;;;;;;4921199;29;20294;-72
2023/05/22 15:23:06;;;;;;;;;;;22.40;89.20;;;;;;4921414;29;19927;-72
2023/05/22 15:25:35;;;;;;;;;;;22.40;89.10;;;;;;4921422;29;19986;-72
2023/05/22 15:28:05;;;;;;;;;;;22.30;90.00;;;;;;4921368;29;19927;-72
2023/05/22 15:30:35;;;;;;;;;;;22.30;89.10;;;;;;4921220;29;19926;-71
2023/05/22 15:33:03;;;;;;;;;;;22.20;90.30;;;;;;4921064;29;19927;-72
2023/05/22 15:35:29;;;;;;;;;;;22.10;90.00;;;;;;4921292;29;20010;-72
2023/05/22 15:37:56;;;;;;;;;;;22.10;91.70;;;;;;4921080;29;19930;-72
2023/05/22 15:40:22;;;;;;;;;;;22.10;91.40;;;;;;4921050;29;19927;-73
2023/05/22 15:42:49;;;;;;;;;;;22.00;91.80;;;;;;4921115;29;19978;-74
2023/05/22 15:45:16;;;;;;;;;;;22.00;91.60;;;;;;4920769;29;20414;-73
2023/05/22 15:47:43;;;;;;;;;;;21.90;92.30;;;;;;4920650;29;19930;-73
2023/05/22 15:50:10;;;;;;;;;;;21.80;94.80;;;;;;4921111;29;19923;-73
2023/05/22 15:52:37;;;;;;;;;;;21.80;95.90;;;;;;4920774;29;19974;-73
2023/05/22 15:55:03;;;;;;;;;;;21.70;97.20;;;;;;4920801;29;19923;-73
2023/05/22 15:57:30;;;;;;;;;;;21.60;97.70;;;;;;4920760;29;19923;-74
2023/05/22 15:59:56;;;;;;;;;;;21.50;99.90;;;;;;4920371;29;19923;-74
2023/05/22 16:02:24;;;;;;;;;;;21.40;99.90;;;;;;4920309;29;19930;-74
2023/05/22 16:04:52;;;;;;;;;;;21.20;99.90;;;;;;4920561;29;20017;-74
2023/05/22 16:07:18;;;;;;;;;;;21.00;99.90;;;;;;4920439;29;19931;-74
2023/05/22 16:09:45;;;;;;;;;;;20.90;99.90;;;;;;4920284;29;20375;-74
2023/05/22 16:12:12;;;;;;;;;;;20.80;99.90;;;;;;4920401;29;19931;-73
2023/05/22 16:14:38;;;;;;;;;;;20.80;99.90;;;;;;4920472;29;19924;-73
2023/05/22 16:17:05;;;;;;;;;;;20.90;99.90;;;;;;4920581;29;20049;-73
2023/05/22 16:19:32;;;;;;;;;;;20.80;99.90;;;;;;4920595;29;19931;-73
2023/05/22 16:22:00;;;;;;;;;;;20.70;99.90;;;;;;4920939;29;20383;-72
2023/05/22 16:24:26;;;;;;;;;;;20.70;99.90;;;;;;4920498;29;19970;-72
2023/05/22 16:26:53;;;;;;;;;;;20.70;99.90;;;;;;4920528;29;19971;-72
2023/05/22 16:29:20;;;;;;;;;;;20.70;99.90;;;;;;4919832;29;19923;-72
2023/05/22 16:31:46;;;;;;;;;;;20.70;99.90;;;;;;4920227;29;20418;-71
2023/05/22 16:34:13;;;;;;;;;;;20.70;99.90;;;;;;4920669;29;19927;-72
2023/05/22 16:36:39;;;;;;;;;;;20.60;99.90;;;;;;4921887;29;19930;-70
2023/05/22 16:39:07;;;;;;;;;;;20.60;99.90;;;;;;4922616;29;19923;-69
2023/05/22 16:41:34;;;;;;;;;;;;;;;;;;4922380;29;19947;-71
2023/05/22 16:44:01;;;;;;;;;;;20.50;99.90;;;;;;4922134;29;19923;-71
2023/05/22 16:46:27;;;;;;;;;;;20.50;99.90;;;;;;4922856;29;19932;-71
2023/05/22 16:48:54;;;;;;;;;;;20.40;99.90;;;;;;4923131;29;19930;-71
2023/05/22 16:51:23;;;;;;;;;;;20.30;99.90;;;;;;4922294;29;19923;-71
2023/05/22 16:53:49;;;;;;;;;;;20.50;99.90;;;;;;4920277;29;19923;-70
2023/05/22 16:56:19;;;;;;;;;;;20.50;99.90;;;;;;4920444;29;19927;-71
2023/05/22 16:58:46;;;;;;;;;;;20.50;99.90;;;;;;4919955;29;20030;-71
2023/05/22 17:01:13;;;;;;;;;;;20.50;99.90;;;;;;4919869;29;20290;-70
2023/05/22 17:03:40;;;;;;;;;;;20.50;99.90;;;;;;4919791;29;19922;-70
2023/05/22 17:06:07;;;;;;;;;;;20.60;99.90;;;;;;4919510;29;20386;-70
2023/05/22 17:08:34;;;;;;;;;;;20.50;99.90;;;;;;4919987;29;19929;-70
2023/05/22 17:11:00;;;;;;;;;;;20.50;99.90;;;;;;4919652;29;19923;-70
2023/05/22 17:13:28;;;;;;;;;;;20.50;99.90;;;;;;4919087;29;20290;-71
2023/05/22 17:15:55;;;;;;;;;;;20.50;99.90;;;;;;4919325;29;20310;-71
2023/05/22 17:18:22;;;;;;;;;;;20.40;99.90;;;;;;4919733;29;19923;-71
2023/05/22 17:20:49;;;;;;;;;;;20.50;99.90;;;;;;4919329;29;19922;-71
2023/05/22 17:23:16;;;;;;;;;;;;;;;;;;4919368;29;19930;-71
2023/05/22 17:25:45;;;;;;;;;;;20.30;99.90;;;;;;4919004;29;20375;-71
2023/05/22 17:28:12;;;;;;;;;;;20.40;99.90;;;;;;4919343;29;19930;-71
2023/05/22 17:30:41;;;;;;;;;;;20.30;99.90;;;;;;4919136;29;20291;-71
2023/05/22 17:33:07;;;;;;;;;;;20.20;99.90;;;;;;4919199;29;19923;-72
2023/05/22 17:35:34;;;;;;;;;;;20.10;99.90;;;;;;4919238;29;19926;-71
2023/05/22 17:38:00;;;;;;;;;;;20.10;99.90;;;;;;4919158;29;20276;-72
2023/05/22 17:40:27;;;;;;;;;;;20.00;99.90;;;;;;4918294;29;19923;-71
2023/05/22 17:42:56;;;;;;;;;;;19.90;99.90;;;;;;4919067;29;19923;-71
2023/05/22 17:45:22;;;;;;;;;;;19.80;99.90;;;;;;4919228;29;19923;-71
2023/05/22 17:47:50;;;;;;;;;;;19.80;99.90;;;;;;4918879;29;19930;-71
2023/05/22 17:50:17;;;;;;;;;;;19.70;99.90;;;;;;4918902;29;19923;-71
2023/05/22 17:52:43;;;;;;;;;;;19.60;99.90;;;;;;4918789;29;19927;-71
2023/05/22 17:55:10;;;;;;;;;;;19.60;99.90;;;;;;4918645;29;20024;-71
2023/05/22 17:57:36;;;;;;;;;;;19.50;99.90;;;;;;4918747;29;19923;-71
2023/05/22 18:00:08;;;;;;;;;;;19.40;99.90;;;;;;4918821;29;19927;-71
2023/05/22 18:02:34;;;;;;;;;;;19.30;99.90;;;;;;4918703;29;20021;-71
2023/05/22 18:05:02;;;;;;;;;;;19.20;99.90;;;;;;4918713;29;19923;-71
2023/05/22 18:07:29;;;;;;;;;;;19.10;99.90;;;;;;4918755;29;19926;-71
2023/05/22 18:09:56;;;;;;;;;;;19.00;99.90;;;;;;4918449;29;20013;-70
2023/05/22 18:12:22;;;;;;;;;;;18.90;99.90;;;;;;4918688;29;19971;-71
2023/05/22 18:14:49;;;;;;;;;;;18.80;99.90;;;;;;4918705;29;19923;-70
2023/05/22 18:17:15;;;;;;;;;;;18.70;99.90;;;;;;4918415;29;19930;-70
2023/05/22 18:19:42;;;;;;;;;;;18.60;99.90;;;;;;4919571;29;19930;-70
2023/05/22 18:22:10;;;;;;;;;;;18.40;99.90;;;;;;4919022;29;20339;-70
2023/05/22 18:24:36;;;;;;;;;;;18.30;99.90;;;;;;4918498;29;19923;-70
2023/05/22 18:27:03;;;;;;;;;;;18.20;99.90;;;;;;4918599;29;19930;-70
2023/05/22 18:29:30;;;;;;;;;;;18.10;99.90;;;;;;4918311;29;19958;-70
2023/05/22 18:31:56;;;;;;;;;;;18.00;99.90;;;;;;4918770;29;20006;-70
2023/05/22 18:34:23;;;;;;;;;;;17.90;99.90;;;;;;4918012;29;19923;-70
2023/05/22 18:36:51;;;;;;;;;;;17.70;99.90;;;;;;4917708;29;20327;-70
2023/05/22 18:39:19;;;;;;;;;;;17.60;99.90;;;;;;4917969;29;20265;-70
2023/05/22 18:41:46;;;;;;;;;;;17.50;99.90;;;;;;4917920;29;19923;-70
2023/05/22 18:44:12;;;;;;;;;;;17.40;99.90;;;;;;4917490;29;20302;-70
2023/05/22 18:46:39;;;;;;;;;;;17.30;99.90;;;;;;4917949;29;19930;-70
2023/05/22 18:49:05;;;;;;;;;;;17.20;99.90;;;;;;4917856;29;19923;-71
2023/05/22 18:51:32;;;;;;;;;;;17.10;99.90;;;;;;4917625;29;19978;-70
2023/05/22 18:53:58;;;;;;;;;;;17.00;99.90;;;;;;4917700;29;19930;-73
2023/05/22 18:56:26;;;;;;;;;;;16.80;99.90;;;;;;4918571;29;19946;-72
2023/05/22 18:58:53;;;;;;;;;;;16.80;99.90;;;;;;4917990;29;20259;-73
2023/05/22 19:01:20;;;;;;;;;;;16.60;99.90;;;;;;4918284;29;19930;-73
2023/05/22 19:03:46;;;;;;;;;;;16.60;99.90;;;;;;4917654;29;20299;-72
2023/05/22 19:06:13;;;;;;;;;;;16.50;99.90;;;;;;4917441;29;19927;-72
2023/05/22 19:08:39;;;;;;;;;;;16.40;99.90;;;;;;4917929;29;19927;-72
2023/05/22 19:11:06;;;;;;;;;;;16.30;99.90;;;;;;4917572;29;19923;-74
2023/05/22 19:13:34;;;;;;;;;;;16.20;99.90;;;;;;4917816;29;19927;-72
2023/05/22 19:16:00;;;;;;;;;;;16.10;99.90;;;;;;4918037;29;20271;-75
2023/05/22 19:18:27;;;;;;;;;;;16.00;99.90;;;;;;4918040;29;19923;-75
2023/05/22 19:20:53;;;;;;;;;;;15.90;99.90;;;;;;4917836;29;19977;-75
2023/05/22 19:23:20;;;;;;;;;;;15.90;99.90;;;;;;4917941;29;19923;-75
2023/05/22 19:25:48;;;;;;;;;;;15.80;99.90;;;;;;4917679;29;19923;-74
2023/05/22 19:28:14;;;;;;;;;;;15.70;99.90;;;;;;4939848;23;19950;-73
2023/05/22 19:30:42;;;;;;;;;;;15.60;99.90;;;;;;4917660;29;19930;-72
2023/05/22 19:33:09;;;;;;;;;;;15.60;99.90;;;;;;4917459;29;19923;-72
2023/05/22 19:35:36;;;;;;;;;;;15.50;99.90;;;;;;4917712;29;19923;-72
2023/05/22 19:38:03;;;;;;;;;;;15.50;99.90;;;;;;4917349;29;19974;-70
2023/05/22 19:40:29;;;;;;;;;;;15.40;99.90;;;;;;4917368;29;19929;-71
2023/05/22 19:42:56;;;;;;;;;;;15.30;99.90;;;;;;4917405;29;20013;-73
2023/05/22 19:45:24;;;;;;;;;;;15.30;99.90;;;;;;4917194;29;20406;-72
2023/05/22 19:47:52;;;;;;;;;;;15.20;99.90;;;;;;4916933;29;19930;-71
2023/05/22 19:50:19;;;;;;;;;;;15.20;99.90;;;;;;4917346;29;19974;-72
2023/05/22 19:52:45;;;;;;;;;;;15.20;99.90;;;;;;4917444;29;19930;-72
2023/05/22 19:55:12;;;;;;;;;;;15.20;99.90;;;;;;4917297;29;20393;-72
2023/05/22 19:57:39;;;;;;;;;;;15.20;99.90;;;;;;4917307;29;19926;-70
2023/05/22 20:00:09;;;;;;;;;;;15.20;99.90;;;;;;4917543;29;19923;-72
2023/05/22 20:02:36;;;;;;;;;;;15.10;99.90;;;;;;4917425;29;20410;-72
2023/05/22 20:05:08;;;;;;;;;;;15.00;99.90;;;;;;4920963;29;19931;-71
2023/05/22 20:07:34;;;;;;;;;;;15.00;99.90;;;;;;4920791;29;20351;-71
2023/05/22 20:10:04;;;;;;;;;;;14.90;99.90;;;;;;4920487;29;19930;-71
2023/05/22 20:12:31;;;;;;;;;;;14.80;99.90;;;;;;4921428;29;19970;-71
2023/05/22 20:14:58;;;;;;;;;;;14.80;99.90;;;;;;4920753;29;19930;-72
2023/05/22 20:17:25;;;;;;;;;;;14.70;99.90;;;;;;4920437;29;20390;-71
2023/05/22 20:19:52;;;;;;;;;;;14.70;99.90;;;;;;4920726;29;19978;-71
2023/05/22 20:22:20;;;;;;;;;;;14.60;99.90;;;;;;4920370;29;19923;-71
2023/05/22 20:24:47;;;;;;;;;;;14.60;99.90;;;;;;4920485;29;20383;-75
2023/05/22 20:27:13;;;;;;;;;;;14.50;99.90;;;;;;4920303;29;19930;-73
2023/05/22 20:29:40;;;;;;;;;;;14.50;99.90;;;;;;4920654;29;19923;-72
2023/05/22 20:32:07;;;;;;;;;;;14.40;99.90;;;;;;4920571;29;19923;-72
2023/05/22 20:34:34;;;;;;;;;;;14.40;99.90;;;;;;4920167;29;19926;-73
2023/05/22 20:37:01;;;;;;;;;;;14.40;99.90;;;;;;4920175;29;19945;-72
2023/05/22 20:39:29;;;;;;;;;;;14.30;99.90;;;;;;4920568;29;19923;-72
2023/05/22 20:41:55;;;;;;;;;;;14.30;99.90;;;;;;4920170;29;19979;-74
2023/05/22 20:44:23;;;;;;;;;;;14.30;99.90;;;;;;4919965;29;19930;-70
2023/05/22 20:46:50;;;;;;;;;;;14.30;99.90;;;;;;4920045;29;20030;-71
2023/05/22 20:49:19;;;;;;;;;;;14.20;99.90;;;;;;4919617;29;19978;-71
2023/05/22 20:51:45;;;;;;;;;;;14.20;99.90;;;;;;4919731;29;20006;-70
2023/05/22 20:54:12;;;;;;;;;;;14.10;99.90;;;;;;4920137;29;19923;-71
2023/05/22 20:56:40;;;;;;;;;;;14.10;99.90;;;;;;4919598;29;20387;-71
2023/05/22 20:59:06;;;;;;;;;;;14.10;99.90;;;;;;4920009;29;20372;-71
2023/05/22 21:01:34;;;;;;;;;;;14.10;99.90;;;;;;4919919;29;20280;-71
2023/05/22 21:04:00;;;;;;;;;;;14.00;99.90;;;;;;4919801;29;19970;-72
2023/05/22 21:06:27;;;;;;;;;;;14.00;99.90;;;;;;4919560;29;19923;-72
2023/05/22 21:08:57;;;;;;;;;;;13.90;99.90;;;;;;4919070;29;19927;-72
2023/05/22 21:11:24;;;;;;;;;;;13.90;99.90;;;;;;4919670;29;19930;-72
2023/05/22 21:13:52;;;;;;;;;;;13.80;99.90;;;;;;4918957;29;19923;-72
2023/05/22 21:16:18;;;;;;;;;;;13.80;99.90;;;;;;4918971;29;20422;-73
2023/05/22 21:18:45;;;;;;;;;;;13.80;99.90;;;;;;4919030;29;19923;-72
2023/05/22 21:21:14;;;;;;;;;;;13.80;99.90;;;;;;4919304;29;19923;-72
2023/05/22 21:23:40;;;;;;;;;;;13.70;99.90;;;;;;4918962;29;20434;-71
2023/05/22 21:26:07;;;;;;;;;;;13.70;99.90;;;;;;4919245;29;19923;-71
2023/05/22 21:28:33;;;;;;;;;;;13.70;99.90;;;;;;4918984;29;19927;-72
2023/05/22 21:31:01;;;;;;;;;;;13.70;99.90;;;;;;4919480;29;19966;-72
2023/05/22 21:33:27;;;;;;;;;;;13.70;99.90;;;;;;4919182;29;20000;-72
2023/05/22 21:35:54;;;;;;;;;;;13.60;99.90;;;;;;4918962;29;19923;-72
2023/05/22 21:38:21;;;;;;;;;;;13.60;99.90;;;;;;4918944;29;19923;-72
2023/05/22 21:40:47;;;;;;;;;;;13.60;99.90;;;;;;4918869;29;19930;-71
2023/05/22 21:43:14;;;;;;;;;;;13.60;99.90;;;;;;4918813;29;19930;-72
2023/05/22 21:45:40;;;;;;;;;;;13.50;99.90;;;;;;4918771;29;20009;-71
2023/05/22 21:48:08;;;;;;;;;;;13.50;99.90;;;;;;4918758;29;19922;-71
2023/05/22 21:50:35;;;;;;;;;;;13.50;99.90;;;;;;4918760;29;19923;-71
2023/05/22 21:53:01;;;;;;;;;;;13.40;99.90;;;;;;4918683;29;19998;-71
2023/05/22 21:55:28;;;;;;;;;;;13.40;99.90;;;;;;4918535;29;19930;-71
2023/05/22 21:57:55;;;;;;;;;;;13.40;99.90;;;;;;4918514;29;19930;-71
2023/05/22 22:00:21;;;;;;;;;;;13.40;99.90;;;;;;4918572;29;20339;-71
2023/05/22 22:02:48;;;;;;;;;;;13.40;99.90;;;;;;4918561;29;19922;-71
2023/05/22 22:05:17;;;;;;;;;;;13.40;99.90;;;;;;4918502;29;19923;-72
2023/05/22 22:07:43;;;;;;;;;;;13.40;99.90;;;;;;4918213;29;20303;-72
2023/05/22 22:10:10;;;;;;;;;;;13.30;99.90;;;;;;4918667;29;19923;-72
2023/05/22 22:12:37;;;;;;;;;;;13.30;99.90;;;;;;4918245;29;20426;-72
2023/05/22 22:15:04;;;;;;;;;;;13.30;99.90;;;;;;4918354;29;19934;-70
2023/05/22 22:17:30;;;;;;;;;;;13.30;99.90;;;;;;4918224;29;19927;-70
2023/05/22 22:19:57;;;;;;;;;;;13.30;99.90;;;;;;4917959;29;20383;-71
2023/05/22 22:22:25;;;;;;;;;;;13.30;99.90;;;;;;4918079;29;19982;-72
